Time;durP1;ratioP1;P1;durP2;ratioP2;P2;SDS_P1;SDS_P2;PMS_P1;PMS_P2;Temp;Humidity;BMP_temperature;BMP_pressure;BME280_temperature;BME280_humidity;BME280_pressure;Samples;Min_cycle;Max_cycle;Signal;HPM_P1;HPM_P2
2020/12/03 00:02:38;;;;;;;9.67;7.47;;;;;;;4.64;72.33;101869.34;6316485;28;20229;-78
2020/12/03 00:06:00;;;;;;;11.33;7.67;;;;;;;4.65;72.20;101863.75;6345255;28;20192;-78
2020/12/03 00:09:09;;;;;;;7.87;7.07;;;;;;;4.53;70.67;101862.31;6348656;28;20561;-79
2020/12/03 00:12:20;;;;;;;11.37;7.67;;;;;;;4.69;71.41;101850.81;6333840;27;20202;-80
2020/12/03 00:15:23;;;;;;;10.83;7.80;;;;;;;4.46;71.76;101823.38;6336753;28;20234;-79
2020/12/03 00:18:37;;;;;;;11.33;6.43;;;;;;;4.68;70.05;101860.75;6346806;27;20277;-78
2020/12/03 00:21:43;;;;;;;10.87;6.67;;;;;;;4.81;68.87;101847.72;6328458;27;20230;-79
2020/12/03 00:24:48;;;;;;;8.83;6.93;;;;;;;4.64;71.38;101843.16;6336013;27;20216;-78
2020/12/03 00:32:59;;;;;;;8.90;6.47;;;;;;;4.41;70.81;101825.69;6328441;28;20640;-79
2020/12/03 00:36:03;;;;;;;9.70;7.43;;;;;;;4.33;70.87;101815.66;6325580;27;20514;-79
2020/12/03 00:39:12;;;;;;;10.80;7.07;;;;;;;4.63;70.42;101841.44;6333610;28;20237;-80
2020/12/03 00:42:20;;;;;;;10.10;7.03;;;;;;;4.61;71.25;101838.06;6341391;28;20299;-80
2020/12/03 00:45:25;;;;;;;9.47;6.80;;;;;;;4.49;72.30;101817.69;6336027;28;20193;-79
2020/12/03 00:48:34;;;;;;;10.53;7.13;;;;;;;4.66;70.05;101822.22;6322929;28;20220;-79
2020/12/03 00:51:42;;;;;;;11.20;6.93;;;;;;;4.65;69.62;101812.41;6314348;28;20243;-78
2020/12/03 00:54:47;;;;;;;10.47;7.23;;;;;;;4.52;70.22;101801.13;6330474;28;20191;-79
2020/12/03 00:57:52;;;;;;;12.03;7.57;;;;;;;4.67;69.56;101815.84;6321325;28;20203;-79
2020/12/03 01:00:55;;;;;;;12.67;7.30;;;;;;;4.81;69.30;101812.56;6312142;28;20296;-78
2020/12/03 01:04:05;;;;;;;10.17;7.13;;;;;;;4.77;69.58;101813.88;6316096;28;20275;-81
2020/12/03 01:07:16;;;;;;;11.97;7.27;;;;;;;4.62;70.13;101796.53;6313291;28;20539;-78
2020/12/03 01:10:22;;;;;;;14.60;7.63;;;;;;;4.45;69.63;101794.66;6304351;28;20208;-79
2020/12/03 01:13:28;;;;;;;9.90;6.93;;;;;;;4.64;69.40;101793.66;6311898;28;20199;-78
2020/12/03 01:16:32;;;;;;;11.27;7.63;;;;;;;4.67;69.35;101783.41;6309814;28;20198;-80
2020/12/03 01:19:36;;;;;;;10.37;7.20;;;;;;;4.55;68.87;101790.00;6314667;28;20285;-78
2020/12/03 01:22:40;;;;;;;9.50;7.00;;;;;;;4.58;69.09;101794.25;6301062;28;20708;-79
2020/12/03 01:25:45;;;;;;;14.37;6.90;;;;;;;4.43;68.04;101786.72;6308936;28;20196;-79
2020/12/03 01:28:49;;;;;;;8.63;6.83;;;;;;;4.54;68.42;101788.34;6313389;28;20195;-78
2020/12/03 01:31:52;;;;;;;10.10;7.43;;;;;;;4.17;69.01;101730.88;6299730;28;20646;-80
2020/12/03 01:34:55;;;;;;;10.33;7.23;;;;;;;4.64;67.84;101778.28;6303074;28;20206;-79
2020/12/03 01:38:00;;;;;;;7.60;6.87;;;;;;;4.60;67.84;101770.63;6304010;28;20207;-79
2020/12/03 01:41:03;;;;;;;7.10;6.40;;;;;;;4.51;68.92;101776.97;6318728;28;20534;-77
2020/12/03 01:44:09;;;;;;;10.43;6.93;;;;;;;4.55;69.04;101763.00;6317639;28;20199;-79
2020/12/03 01:47:23;;;;;;;8.17;6.50;;;;;;;4.46;69.85;101769.34;6308177;28;20195;-79
2020/12/03 01:50:27;;;;;;;11.30;7.10;;;;;;;4.44;69.51;101757.84;6300475;28;20235;-79
2020/12/03 01:53:31;;;;;;;8.70;6.87;;;;;;;4.34;70.03;101754.34;6301153;28;22946;-79
2020/12/03 01:56:51;;;;;;;8.50;6.80;;;;;;;4.41;68.84;101758.16;6305004;28;20663;-79
2020/12/03 02:00:04;;;;;;;8.50;6.73;;;;;;;4.52;68.27;101757.88;6313082;28;20225;-81
2020/12/03 02:03:29;;;;;;;7.20;6.47;;;;;;;4.61;67.99;101751.56;6339884;27;20224;-78
2020/12/03 02:06:35;;;;;;;10.53;7.17;;;;;;;4.62;67.93;101755.97;6324712;28;20195;-78
2020/12/03 02:09:40;;;;;;;8.33;6.27;;;;;;;4.79;67.33;101735.31;6324584;27;20210;-79
2020/12/03 02:12:43;;;;;;;9.17;6.67;;;;;;;4.58;69.28;101746.47;6342645;28;20202;-78
2020/12/03 02:15:47;;;;;;;8.47;6.53;;;;;;;4.46;69.33;101750.44;6334238;27;20205;-79
2020/12/03 02:18:52;;;;;;;11.37;6.73;;;;;;;4.69;67.78;101738.13;6339335;27;20230;-78
2020/12/03 02:21:59;;;;;;;9.23;6.67;;;;;;;4.51;68.93;101740.00;6328585;28;20208;-79
2020/12/03 02:25:04;;;;;;;7.90;6.37;;;;;;;4.34;68.84;101727.31;6304439;28;20212;-78
2020/12/03 02:28:13;;;;;;;8.50;6.20;;;;;;;4.38;69.52;101745.81;6333723;28;20766;-79
2020/12/03 02:31:17;;;;;;;8.20;6.67;;;;;;;4.45;69.16;101729.81;6319190;28;20609;-79
2020/12/03 02:34:23;;;;;;;8.93;6.43;;;;;;;4.56;68.29;101732.28;6333155;28;20282;-79
2020/12/03 02:37:28;;;;;;;8.97;6.57;;;;;;;4.69;68.00;101738.13;6317051;28;20190;-80
2020/12/03 02:40:32;;;;;;;8.47;6.47;;;;;;;4.52;67.89;101730.88;6329022;28;20629;-78
2020/12/03 02:43:37;;;;;;;8.60;6.47;;;;;;;4.48;68.34;101718.69;6325840;28;20747;-78
2020/12/03 02:46:41;;;;;;;8.33;6.67;;;;;;;4.42;68.42;101708.50;6323406;28;20209;-79
2020/12/03 02:49:45;;;;;;;9.17;7.07;;;;;;;4.27;68.30;101696.53;6335827;28;20246;-79
2020/12/03 02:52:50;;;;;;;9.40;6.47;;;;;;;4.60;67.65;101701.19;6343407;27;20374;-79
2020/12/03 02:55:53;;;;;;;10.10;6.17;;;;;;;4.43;67.21;101694.00;6327383;28;20196;-79
2020/12/03 02:58:56;;;;;;;10.77;6.93;;;;;;;4.55;66.34;101673.81;6330790;28;20538;-79
2020/12/03 03:02:00;;;;;;;6.57;5.97;;;;;;;4.48;67.01;101690.81;6300635;28;20265;-78
2020/12/03 03:05:05;;;;;;;6.83;6.10;;;;;;;4.60;66.27;101689.53;6313636;28;20263;-79
2020/12/03 03:08:12;;;;;;;10.27;6.97;;;;;;;4.07;66.69;101651.81;6314773;28;20204;-79
2020/12/03 03:11:15;;;;;;;6.90;5.60;;;;;;;4.08;65.84;101640.00;6318318;28;20210;-79
2020/12/03 03:14:20;;;;;;;9.00;5.83;;;;;;;4.48;65.67;101663.78;6304955;28;20641;-79
2020/12/03 03:17:24;;;;;;;7.47;6.07;;;;;;;4.66;65.94;101668.16;6306491;28;20194;-79
2020/12/03 03:20:27;;;;;;;8.80;6.50;;;;;;;4.25;66.80;101679.66;6317534;28;20193;-78
2020/12/03 03:23:32;;;;;;;8.67;6.30;;;;;;;4.56;65.57;101688.16;6311976;28;20532;-78
2020/12/03 03:26:36;;;;;;;9.80;6.40;;;;;;;4.69;64.46;101683.19;6313747;28;20202;-79
2020/12/03 03:29:40;;;;;;;8.20;6.50;;;;;;;4.78;65.02;101669.56;6296527;28;20201;-80
2020/12/03 03:32:44;;;;;;;9.93;6.10;;;;;;;4.53;65.17;101673.13;6311251;28;20668;-79
2020/12/03 03:35:47;;;;;;;7.40;5.97;;;;;;;4.52;66.00;101660.59;6315360;28;20203;-80
2020/12/03 03:38:53;;;;;;;7.20;6.37;;;;;;;4.39;67.25;101660.19;6316613;28;20569;-78
2020/12/03 03:41:56;;;;;;;7.07;6.00;;;;;;;4.38;66.48;101648.53;6310163;28;20284;-78
2020/12/03 03:44:59;;;;;;;7.97;6.20;;;;;;;4.45;66.60;101664.94;6314383;28;20760;-80
2020/12/03 03:48:03;;;;;;;9.90;6.47;;;;;;;4.22;67.08;101642.13;6312202;28;20209;-80
2020/12/03 03:51:07;;;;;;;8.33;6.10;;;;;;;3.63;66.92;101516.78;6309808;28;20403;-79
2020/12/03 03:54:14;;;;;;;6.90;6.20;;;;;;;4.44;67.93;101652.47;6314391;28;20213;-79
2020/12/03 03:57:20;;;;;;;8.60;5.90;;;;;;;4.64;65.89;101643.13;6346258;28;20882;-79
2020/12/03 04:00:24;;;;;;;9.20;6.37;;;;;;;4.48;66.87;101653.81;6313848;28;20329;-78
2020/12/03 04:03:44;;;;;;;8.80;6.20;;;;;;;4.39;67.24;101649.38;6306447;28;20283;-80
2020/12/03 04:06:47;;;;;;;8.57;6.20;;;;;;;4.55;66.35;101638.66;6290440;28;20198;-79
2020/12/03 04:09:51;;;;;;;9.87;6.67;;;;;;;4.41;67.23;101632.00;6327115;28;20198;-80
2020/12/03 04:12:56;;;;;;;8.57;6.10;;;;;;;4.25;67.45;101604.00;6318390;28;20203;-78
2020/12/03 04:15:59;;;;;;;6.93;5.40;;;;;;;4.55;66.24;101638.66;6290204;28;20194;-79
2020/12/03 04:19:03;;;;;;;8.00;6.20;;;;;;;4.67;66.09;101623.91;6311759;28;20277;-78
2020/12/03 04:22:13;;;;;;;8.80;5.87;;;;;;;4.65;65.89;101631.31;6301193;28;20204;-78
2020/12/03 04:25:17;;;;;;;9.70;5.93;;;;;;;4.37;66.72;101603.59;6303298;28;20192;-78
2020/12/03 04:28:21;;;;;;;6.70;5.90;;;;;;;4.61;66.23;101608.31;6308905;28;20195;-78
2020/12/03 04:31:25;;;;;;;6.50;5.70;;;;;;;4.33;67.24;101602.22;6307168;28;20286;-78
2020/12/03 04:34:28;;;;;;;7.30;6.40;;;;;;;4.25;67.69;101598.59;6313481;28;20200;-80
2020/12/03 04:37:32;;;;;;;6.40;5.43;;;;;;;4.28;67.37;101598.31;6303346;28;20189;-79
2020/12/03 04:40:41;;;;;;;9.80;5.90;;;;;;;4.44;66.98;101587.63;6314524;28;20271;-80
2020/12/03 04:43:49;;;;;;;9.63;5.87;;;;;;;4.58;66.31;101573.50;6305847;28;20217;-78
2020/12/03 04:47:11;;;;;;;7.53;6.07;;;;;;;4.58;66.67;101595.13;6307762;28;20286;-80
2020/12/03 04:50:29;;;;;;;6.87;6.03;;;;;;;4.43;67.27;101580.50;6305432;28;20225;-79
2020/12/03 04:53:39;;;;;;;7.57;6.37;;;;;;;4.26;66.99;101589.50;6314811;28;20207;-78
2020/12/03 04:56:51;;;;;;;8.33;6.50;;;;;;;4.47;66.37;101581.03;6313445;28;20200;-78
2020/12/03 05:00:02;;;;;;;7.47;6.33;;;;;;;4.61;65.88;101583.13;6316150;28;20233;-78
2020/12/03 05:03:55;;;;;;;10.53;7.10;;;;;;;4.46;65.82;101568.53;6339946;28;20209;-79
2020/12/03 05:07:02;;;;;;;9.87;6.80;;;;;;;4.61;64.83;101578.59;6336360;28;20200;-79
2020/12/03 05:10:21;;;;;;;7.40;6.63;;;;;;;4.35;65.88;101580.44;6348753;28;20194;-80
2020/12/03 05:13:30;;;;;;;10.63;6.80;;;;;;;4.28;66.80;101571.28;6322108;28;20248;-78
2020/12/03 05:16:43;;;;;;;12.53;6.70;;;;;;;4.19;66.67;101561.41;6334054;28;20190;-80
2020/12/03 05:20:09;;;;;;;10.20;7.20;;;;;;;4.43;66.72;101569.69;6348791;28;20679;-79
2020/12/03 05:23:17;;;;;;;10.33;6.87;;;;;;;4.26;66.63;101551.69;6334027;28;20215;-80
2020/12/03 05:26:22;;;;;;;7.43;6.70;;;;;;;4.30;67.85;101572.81;6330477;27;20183;-78
2020/12/03 05:29:30;;;;;;;12.43;7.03;;;;;;;4.38;67.91;101569.31;6329045;28;20555;-82
2020/12/03 05:32:34;;;;;;;9.77;6.80;;;;;;;4.33;67.98;101564.41;6333030;28;20193;-78
2020/12/03 05:35:38;;;;;;;12.17;6.87;;;;;;;4.45;67.16;101562.25;6333420;27;20196;-78
2020/12/03 05:38:41;;;;;;;12.90;6.73;;;;;;;4.35;67.58;101566.94;6343456;28;20364;-79
2020/12/03 05:41:52;;;;;;;10.03;6.70;;;;;;;4.34;68.09;101560.69;6331617;27;20202;-81
2020/12/03 05:44:58;;;;;;;12.47;6.73;;;;;;;4.39;67.38;101568.34;6324106;28;20243;-79
2020/12/03 05:48:05;;;;;;;8.03;6.80;;;;;;;4.42;66.60;101567.97;6335636;28;20364;-80
2020/12/03 05:51:16;;;;;;;12.87;8.07;;;;;;;4.46;66.18;101555.00;6315251;27;20206;-79
2020/12/03 05:54:20;;;;;;;10.90;7.23;;;;;;;4.40;67.56;101553.78;6331678;27;20198;-79
2020/12/03 05:57:27;;;;;;;11.37;7.03;;;;;;;4.38;66.60;101566.63;6328889;27;20256;-79
2020/12/03 06:00:31;;;;;;;7.63;6.93;;;;;;;4.57;66.05;101552.88;6340309;28;20239;-78
2020/12/03 06:04:07;;;;;;;9.00;6.80;;;;;;;4.41;66.56;101550.09;6330881;27;20298;-78
2020/12/03 06:07:32;;;;;;;9.33;6.60;;;;;;;4.42;66.34;101546.38;6304964;28;20322;-79
2020/12/03 06:10:46;;;;;;;9.80;7.13;;;;;;;4.37;66.53;101529.78;6322578;28;20405;-80
2020/12/03 06:14:20;;;;;;;8.80;6.37;;;;;;;4.24;67.31;101537.47;6339372;27;20748;-79
2020/12/03 06:17:39;;;;;;;9.40;6.93;;;;;;;4.31;68.08;101538.56;6314062;28;20203;-78
2020/12/03 06:20:53;;;;;;;11.43;6.97;;;;;;;4.36;67.34;101541.63;6341523;28;20628;-79
2020/12/03 06:24:12;;;;;;;9.50;6.37;;;;;;;4.32;68.49;101534.81;6349552;27;20232;-79
2020/12/03 06:27:49;;;;;;;10.13;6.80;;;;;;;4.27;68.40;101531.75;6320006;28;20252;-79
2020/12/03 06:30:58;;;;;;;9.70;7.03;;;;;;;4.41;66.80;101539.28;6347590;27;20620;-78
2020/12/03 06:34:19;;;;;;;9.00;7.40;;;;;;;4.15;67.77;101516.84;6324795;28;20201;-79
2020/12/03 06:37:27;;;;;;;10.07;7.27;;;;;;;4.13;67.76;101502.66;6340268;27;20333;-79
2020/12/03 06:40:35;;;;;;;8.43;6.63;;;;;;;4.36;67.21;101498.41;6352446;27;20326;-79
2020/12/03 06:43:46;;;;;;;13.03;7.03;;;;;;;4.57;66.70;101523.13;6308000;28;20266;-79
2020/12/03 06:47:23;;;;;;;9.80;6.87;;;;;;;4.40;67.67;101526.78;6330857;28;20195;-78
2020/12/03 06:50:57;;;;;;;10.37;6.50;;;;;;;4.56;66.31;101510.66;6326266;28;20361;-80
2020/12/03 06:54:36;;;;;;;10.83;6.73;;;;;;;4.51;66.88;101518.41;6325712;28;20274;-79
2020/12/03 06:58:03;;;;;;;8.20;7.37;;;;;;;4.48;66.53;101526.81;6331922;28;20262;-79
2020/12/03 07:01:59;;;;;;;12.20;7.53;;;;;;;4.67;66.09;101523.88;6336164;27;20272;-80
2020/12/03 07:05:29;;;;;;;9.37;7.10;;;;;;;4.46;66.83;101531.53;6274306;28;20356;-79
2020/12/03 07:08:47;;;;;;;10.90;7.17;;;;;;;4.36;67.46;101522.72;6337966;28;20525;-79
2020/12/03 07:12:18;;;;;;;12.00;6.90;;;;;;;4.55;67.13;101522.47;6334203;27;20209;-80
2020/12/03 07:16:08;;;;;;;9.57;7.20;;;;;;;4.54;67.13;101507.28;6336043;28;20242;-82
2020/12/03 07:19:57;;;;;;;10.43;7.30;;;;;;;4.63;67.34;101517.09;6345456;28;20195;-82
2020/12/03 07:23:06;;;;;;;12.83;6.97;;;;;;;4.69;66.66;101524.56;6329013;28;20198;-80
2020/12/03 07:26:48;;;;;;;13.73;6.90;;;;;;;4.49;68.37;101498.81;6351211;28;20201;-81
2020/12/03 07:29:57;;;;;;;12.83;8.13;;;;;;;4.56;69.41;101526.88;6342240;28;20215;-81
2020/12/03 07:33:05;;;;;;;10.50;7.50;;;;;;;4.58;69.37;101524.84;6338282;28;20214;-80
2020/12/03 07:36:43;;;;;;;8.30;7.33;;;;;;;4.39;69.89;101498.09;6326555;28;20295;-81
2020/12/03 07:39:50;;;;;;;9.93;7.93;;;;;;;4.62;70.07;101520.81;6339333;28;20217;-79
2020/12/03 07:43:02;;;;;;;12.33;8.23;;;;;;;4.54;70.63;101539.69;6364404;28;20246;-80
2020/12/03 07:46:39;;;;;;;19.93;9.23;;;;;;;4.45;69.99;101519.03;6357103;28;20259;-80
2020/12/03 07:49:45;;;;;;;11.13;8.03;;;;;;;4.50;69.75;101515.84;6326926;28;20269;-80
2020/12/03 07:53:18;;;;;;;14.77;8.43;;;;;;;4.67;68.71;101517.63;6362054;28;20214;-80
2020/12/03 07:56:38;;;;;;;14.10;8.30;;;;;;;4.37;69.94;101490.13;6329187;28;20205;-80
2020/12/03 07:59:41;;;;;;;14.70;8.40;;;;;;;4.69;68.57;101527.28;6346951;28;20228;-81
2020/12/03 08:02:53;;;;;;;15.07;8.77;;;;;;;4.92;67.24;101517.56;6350648;28;20205;-81
2020/12/03 08:06:23;;;;;;;13.83;7.87;;;;;;;4.96;67.49;101524.31;6358366;28;20213;-81
2020/12/03 08:09:37;;;;;;;12.57;8.60;;;;;;;4.37;69.31;101468.50;6340878;28;20197;-79
2020/12/03 08:13:21;;;;;;;16.47;8.27;;;;;;;4.75;69.57;101512.25;6337115;28;20209;-80
2020/12/03 08:16:33;;;;;;;19.07;8.83;;;;;;;4.84;69.03;101509.41;6329622;28;20192;-83
2020/12/03 08:19:38;;;;;;;19.37;10.40;;;;;;;4.55;70.38;101476.53;6363552;28;20276;-80
2020/12/03 08:22:43;;;;;;;10.47;8.27;;;;;;;4.79;68.48;101517.19;6358600;28;20274;-82
2020/12/03 08:25:47;;;;;;;13.77;8.73;;;;;;;4.70;69.60;101507.31;6331742;28;20217;-81
2020/12/03 08:28:51;;;;;;;14.27;8.10;;;;;;;4.86;69.13;101510.09;6351072;28;20228;-81
2020/12/03 08:31:53;;;;;;;11.40;7.93;;;;;;;4.78;69.15;101510.06;6351357;28;20195;-82
2020/12/03 08:34:58;;;;;;;13.17;7.90;;;;;;;4.72;68.86;101510.72;6356919;28;20231;-81
2020/12/03 08:38:01;;;;;;;12.53;7.57;;;;;;;4.60;68.96;101479.56;6341232;27;20203;-81
2020/12/03 08:41:09;;;;;;;8.90;7.70;;;;;;;4.72;68.60;101486.41;6351234;27;20194;-81
2020/12/03 08:44:16;;;;;;;12.17;7.47;;;;;;;4.54;69.51;101472.13;6374631;27;20226;-84
2020/12/03 08:47:33;;;;;;;9.87;8.13;;;;;;;4.84;67.30;101495.91;6340227;28;20195;-81
2020/12/03 08:50:37;;;;;;;14.83;8.13;;;;;;;4.45;69.27;101448.78;6348323;28;20665;-81
2020/12/03 08:53:44;;;;;;;13.27;7.60;;;;;;;4.71;68.74;101509.03;6338615;28;20252;-80
2020/12/03 08:56:48;;;;;;;15.50;7.47;;;;;;;4.79;67.47;101509.06;6354379;28;20476;-83
2020/12/03 08:59:54;;;;;;;14.63;7.70;;;;;;;4.82;65.97;101506.03;6366583;28;20280;-79
2020/12/03 09:02:58;;;;;;;14.40;7.33;;;;;;;4.74;67.62;101508.72;6360642;28;20231;-83
2020/12/03 09:06:03;;;;;;;9.50;7.23;;;;;;;4.47;67.54;101495.41;6350840;28;20351;-82
2020/12/03 09:09:07;;;;;;;10.50;7.63;;;;;;;4.39;67.44;101471.06;6347632;27;20251;-82
2020/12/03 09:12:19;;;;;;;12.30;8.27;;;;;;;4.61;66.95;101500.19;6356109;27;20204;-81
2020/12/03 09:15:23;;;;;;;11.17;7.10;;;;;;;4.64;67.45;101491.78;6355977;27;20193;-79
2020/12/03 09:18:27;;;;;;;13.57;7.93;;;;;;;4.60;67.09;101500.34;6318775;28;20198;-79
2020/12/03 09:21:31;;;;;;;14.23;7.83;;;;;;;4.77;66.71;101500.28;6358190;27;20205;-81
2020/12/03 09:24:36;;;;;;;10.20;7.50;;;;;;;4.59;67.11;101482.47;6323910;28;20217;-80
2020/12/03 09:27:40;;;;;;;9.23;7.27;;;;;;;4.58;66.23;101487.00;6328405;28;20201;-81
2020/12/03 09:30:46;;;;;;;13.50;7.57;;;;;;;4.76;66.14;101485.06;6347749;28;20204;-79
2020/12/03 09:33:52;;;;;;;11.40;7.70;;;;;;;4.68;65.87;101482.31;6344810;27;20214;-79
2020/12/03 09:36:58;;;;;;;14.80;7.57;;;;;;;4.56;66.91;101461.16;6330943;28;20203;-81
2020/12/03 09:40:01;;;;;;;12.20;7.83;;;;;;;4.56;67.23;101483.63;6373445;28;20258;-79
2020/12/03 09:43:10;;;;;;;19.37;7.93;;;;;;;4.63;66.26;101473.84;6349797;28;20194;-81
2020/12/03 09:46:17;;;;;;;12.50;8.20;;;;;;;4.48;66.44;101437.66;6369622;27;20931;-81
2020/12/03 09:49:21;;;;;;;16.17;8.30;;;;;;;4.79;65.91;101463.09;6322110;28;20680;-82
2020/12/03 09:52:43;;;;;;;15.00;8.93;;;;;;;4.64;66.70;101464.75;6332596;28;20189;-80
2020/12/03 09:55:47;;;;;;;14.30;8.87;;;;;;;4.48;66.72;101442.19;6345059;27;20233;-80
2020/12/03 09:58:57;;;;;;;11.63;7.23;;;;;;;4.68;65.39;101460.69;6362811;27;20275;-80
2020/12/03 10:02:25;;;;;;;13.43;8.60;;;;;;;4.61;65.87;101456.97;6310591;28;20230;-79
2020/12/03 10:05:40;;;;;;;17.43;10.80;;;;;;;4.46;66.61;101453.19;6303973;28;20241;-80
2020/12/03 10:09:06;;;;;;;16.20;8.30;;;;;;;4.75;64.74;101456.31;6306865;28;20201;-80
2020/12/03 10:12:34;;;;;;;12.00;8.03;;;;;;;4.74;65.29;101445.69;6304662;28;20202;-79
2020/12/03 10:15:56;;;;;;;15.07;7.87;;;;;;;4.57;65.37;101452.88;6314492;28;20195;-80
2020/12/03 10:19:05;;;;;;;15.57;8.90;;;;;;;4.53;65.67;101450.66;6309298;28;20226;-79
2020/12/03 10:22:22;;;;;;;11.80;7.60;;;;;;;4.48;65.74;101453.88;6322233;28;20343;-80
2020/12/03 10:25:30;;;;;;;12.87;7.43;;;;;;;4.65;65.31;101444.78;6316992;28;20207;-80
2020/12/03 10:28:40;;;;;;;10.07;7.13;;;;;;;4.50;65.89;101443.72;6311896;28;20320;-79
2020/12/03 10:31:45;;;;;;;12.93;8.80;;;;;;;4.52;65.90;101439.00;6342411;28;20288;-80
2020/12/03 10:34:49;;;;;;;18.07;8.77;;;;;;;4.67;65.15;101445.50;6325641;28;20213;-83
2020/12/03 10:37:57;;;;;;;10.20;8.37;;;;;;;4.69;65.15;101435.38;6338477;28;20176;-81
2020/12/03 10:41:03;;;;;;;13.40;8.17;;;;;;;4.60;66.06;101419.28;6337753;28;20556;-80
2020/12/03 10:44:14;;;;;;;16.83;9.13;;;;;;;4.54;66.13;101423.50;6323519;28;20204;-81
2020/12/03 10:47:22;;;;;;;21.30;9.70;;;;;;;4.54;67.53;101425.34;6316204;28;20727;-82
2020/12/03 10:50:57;;;;;;;17.13;9.57;;;;;;;4.49;65.62;101362.84;6332713;28;20220;-79
2020/12/03 10:54:00;;;;;;;16.33;9.87;;;;;;;4.50;67.45;101424.81;6318240;28;20250;-81
2020/12/03 10:57:15;;;;;;;16.13;10.30;;;;;;;4.03;66.80;101350.69;6324814;28;20209;-80
2020/12/03 11:00:21;;;;;;;16.43;10.07;;;;;;;4.62;67.14;101412.72;6325481;28;20229;-81
2020/12/03 11:03:39;;;;;;;15.60;9.80;;;;;;;4.72;65.90;101399.91;6337813;28;20217;-81
2020/12/03 11:06:42;;;;;;;17.60;10.03;;;;;;;4.72;66.44;101402.59;6352214;28;20222;-79
2020/12/03 11:09:54;;;;;;;15.93;8.90;;;;;;;4.34;66.99;101376.13;6360546;27;20193;-80
2020/12/03 11:13:00;;;;;;;14.77;9.43;;;;;;;4.56;65.88;101364.72;6344861;27;20227;-79
2020/12/03 11:16:07;;;;;;;13.27;8.87;;;;;;;4.71;66.31;101390.09;6351332;28;20213;-80
2020/12/03 11:19:33;;;;;;;14.73;9.27;;;;;;;4.80;65.03;101367.44;6344846;28;20202;-81
2020/12/03 11:23:06;;;;;;;12.17;8.40;;;;;;;4.76;64.85;101366.09;6336406;28;20204;-80
2020/12/03 11:26:11;;;;;;;14.77;8.87;;;;;;;4.74;65.75;101373.53;6353557;28;20218;-81
2020/12/03 11:29:18;;;;;;;16.00;9.07;;;;;;;4.75;65.65;101358.19;6356819;28;20198;-81
2020/12/03 11:32:23;;;;;;;13.47;8.37;;;;;;;4.59;66.06;101353.59;6349891;27;20553;-78
2020/12/03 11:35:28;;;;;;;15.53;9.43;;;;;;;4.76;65.90;101349.88;6335881;28;20198;-79
2020/12/03 11:38:32;;;;;;;19.03;9.80;;;;;;;4.41;67.06;101317.75;6349189;28;20314;-80
2020/12/03 11:41:54;;;;;;;15.17;9.60;;;;;;;4.78;66.64;101342.44;6311705;28;20300;-80
2020/12/03 11:48:38;;;;;;;15.50;9.17;;;;;;;4.65;67.15;101336.69;6349655;28;20211;-79
2020/12/03 11:51:41;;;;;;;14.97;8.90;;;;;;;4.56;68.37;101353.91;6330206;28;20642;-80
2020/12/03 11:54:46;;;;;;;13.80;8.80;;;;;;;4.47;67.24;101311.66;6344472;28;20199;-79
2020/12/03 11:57:50;;;;;;;15.97;9.30;;;;;;;4.55;67.47;101308.13;6335905;28;20210;-80
2020/12/03 12:01:11;;;;;;;15.47;9.00;;;;;;;4.92;66.52;101335.53;6334519;28;20776;-79
2020/12/03 12:04:18;;;;;;;14.83;8.93;;;;;;;4.70;66.46;101322.69;6347931;28;20193;-81
2020/12/03 12:07:33;;;;;;;13.63;8.00;;;;;;;4.70;66.40;101328.91;6361809;27;20590;-79
2020/12/03 12:10:40;;;;;;;16.10;9.67;;;;;;;4.76;67.83;101325.56;6341014;27;20200;-79
2020/12/03 12:13:44;;;;;;;12.00;8.87;;;;;;;4.44;68.20;101307.44;6360022;27;20232;-79
2020/12/03 12:16:49;;;;;;;17.77;9.50;;;;;;;4.80;67.63;101321.50;6368448;27;20370;-82
2020/12/03 12:19:54;;;;;;;15.10;9.60;;;;;;;4.75;69.52;101329.25;6339223;28;20455;-82
2020/12/03 12:22:58;;;;;;;15.30;9.03;;;;;;;4.57;70.66;101300.72;6329784;27;20202;-82
2020/12/03 12:26:01;;;;;;;12.57;9.10;;;;;;;4.52;73.72;101324.69;6345654;28;20224;-83
2020/12/03 12:29:07;;;;;;;14.83;9.37;;;;;;;4.33;75.34;101315.00;6369216;27;20197;-83
2020/12/03 12:32:14;;;;;;;11.13;8.60;;;;;;;4.42;74.82;101324.81;6365224;27;20197;-81
2020/12/03 12:35:20;;;;;;;13.13;9.83;;;;;;;4.24;76.95;101324.09;6372405;27;20277;-80
2020/12/03 12:38:24;;;;;;;12.47;9.00;;;;;;;4.08;78.07;101299.75;6358441;28;20663;-80
2020/12/03 12:41:27;;;;;;;14.20;9.23;;;;;;;4.08;78.38;101297.06;6346977;27;20201;-81
2020/12/03 12:44:31;;;;;;;14.50;9.80;;;;;;;3.99;77.67;101257.53;6348330;28;20302;-82
2020/12/03 12:47:35;;;;;;;15.90;10.03;;;;;;;3.98;79.05;101269.34;6371333;28;20259;-81
2020/12/03 12:50:39;;;;;;;13.70;9.80;;;;;;;4.19;79.41;101296.72;6357646;28;20228;-80
2020/12/03 12:53:44;;;;;;;15.80;10.20;;;;;;;4.15;79.35;101292.69;6338051;28;20635;-80
2020/12/03 12:56:47;;;;;;;12.37;9.77;;;;;;;4.33;78.31;101285.31;6361329;27;20288;-80
2020/12/03 12:59:50;;;;;;;16.70;9.73;;;;;;;4.38;77.78;101273.00;6337511;28;20210;-79
2020/12/03 13:02:54;;;;;;;17.30;9.20;;;;;;;4.58;76.30;101269.97;6344677;28;20206;-79
2020/12/03 13:05:59;;;;;;;15.97;9.73;;;;;;;4.20;78.61;101249.81;6352302;27;20213;-80
2020/12/03 13:09:02;;;;;;;17.33;10.17;;;;;;;4.31;78.08;101268.41;6342975;28;20195;-79
2020/12/03 13:12:08;;;;;;;16.47;10.33;;;;;;;4.10;79.41;101249.13;6351496;28;20188;-81
2020/12/03 13:15:12;;;;;;;17.70;9.63;;;;;;;4.20;78.90;101255.22;6343189;27;20244;-80
2020/12/03 13:18:25;;;;;;;12.73;9.07;;;;;;;4.52;77.93;101247.16;6343205;28;20198;-80
2020/12/03 13:21:29;;;;;;;19.07;10.00;;;;;;;4.43;78.47;101245.47;6354901;28;20200;-80
2020/12/03 13:24:33;;;;;;;13.10;9.03;;;;;;;4.23;79.75;101241.38;6354136;27;20192;-79
2020/12/03 13:27:37;;;;;;;16.80;9.80;;;;;;;4.37;78.83;101259.63;6338303;28;20227;-80
2020/12/03 13:30:40;;;;;;;15.07;9.57;;;;;;;4.21;80.64;101251.53;6348787;27;20278;-82
2020/12/03 13:33:47;;;;;;;16.23;10.47;;;;;;;4.36;79.43;101244.44;6348426;28;20470;-81
2020/12/03 13:36:52;;;;;;;15.60;10.03;;;;;;;4.48;78.38;101237.69;6342000;27;20194;-80
2020/12/03 13:39:56;;;;;;;15.80;10.77;;;;;;;4.36;78.25;101206.63;6339389;28;20221;-81
2020/12/03 13:42:59;;;;;;;17.33;10.53;;;;;;;4.31;79.58;101225.19;6357212;27;20346;-80
2020/12/03 13:46:02;;;;;;;16.63;10.67;;;;;;;4.24;79.76;101213.34;6353031;28;20210;-81
2020/12/03 13:49:08;;;;;;;16.93;10.93;;;;;;;4.22;80.64;101235.13;6337276;28;20222;-81
2020/12/03 13:52:15;;;;;;;19.27;11.03;;;;;;;4.21;80.39;101224.50;6336755;28;20207;-81
2020/12/03 13:55:24;;;;;;;18.50;11.10;;;;;;;4.21;81.48;101219.13;6339554;28;20204;-82
2020/12/03 13:58:31;;;;;;;19.57;11.70;;;;;;;4.44;80.87;101231.78;6350398;28;20198;-81
2020/12/03 14:01:34;;;;;;;18.77;11.23;;;;;;;4.50;80.65;101222.16;6326477;28;20233;-81
2020/12/03 14:04:39;;;;;;;21.13;11.13;;;;;;;4.37;82.34;101224.50;6318965;28;20189;-80
2020/12/03 14:07:43;;;;;;;19.33;11.63;;;;;;;4.59;80.34;101213.06;6353190;28;20215;-81
2020/12/03 14:10:46;;;;;;;19.20;11.73;;;;;;;4.43;80.45;101191.44;6323077;28;20199;-80
2020/12/03 14:13:51;;;;;;;20.00;11.60;;;;;;;4.43;80.59;101186.03;6362968;28;20226;-82
2020/12/03 14:16:54;;;;;;;23.03;11.53;;;;;;;4.33;81.22;101179.94;6339064;28;20255;-80
2020/12/03 14:19:58;;;;;;;22.27;12.53;;;;;;;4.39;81.48;101192.78;6345009;28;20262;-81
2020/12/03 14:23:02;;;;;;;22.60;12.10;;;;;;;4.47;81.76;101203.56;6371574;27;20193;-81
2020/12/03 14:26:06;;;;;;;21.47;12.67;;;;;;;4.55;82.01;101206.28;6351642;28;20271;-78
2020/12/03 14:29:10;;;;;;;21.33;12.50;;;;;;;4.36;82.44;101185.03;6350970;27;20199;-81
2020/12/03 14:32:16;;;;;;;19.30;12.10;;;;;;;4.38;82.47;101199.19;6333936;28;20190;-81
2020/12/03 14:35:24;;;;;;;23.97;12.57;;;;;;;4.44;83.35;101193.94;6333057;28;20252;-84
2020/12/03 14:38:35;;;;;;;23.93;13.93;;;;;;;4.55;81.51;101190.06;6347381;28;20247;-79
2020/12/03 14:41:38;;;;;;;24.43;12.80;;;;;;;4.68;81.05;101190.41;6349069;27;20220;-79
2020/12/03 14:44:43;;;;;;;27.53;13.63;;;;;;;4.31;81.51;101144.16;6345492;27;20202;-79
2020/12/03 14:47:47;;;;;;;23.57;12.90;;;;;;;4.54;81.45;101188.41;6307977;28;20322;-78
2020/12/03 14:50:51;;;;;;;20.53;12.70;;;;;;;4.52;81.01;101174.19;6336766;28;20530;-81
2020/12/03 14:53:56;;;;;;;23.37;13.93;;;;;;;4.60;81.01;101171.50;6319078;28;20203;-81